Aeroporto :
LOGIN :

Iscrizione | Disclaimer

   EN    FR    IT 

 










Sommario :    VFR   VFR Marginale   IFR   IFR Intensivo   IFR Molto Intensivo
Visibilità : 
Base nubi : 
>= 8 km
>= 3000ft
5 / 8 km
1000 / 3000 ft
1500m / 5 km
500 / 1000 ft
800 / 1500m
200 / 500 ft
< 800m
< 200 ft
Simboli :   Temporali  Nebbia  Neve Forte  Precipitazioni Forti  Vento > 20 kt
SIGMETs :   Varie  Temporali  Ghiacco  Turbolenza  Onda orograficha  Ceneri Vulcaniche






- Altitudine del aeroporto : 52 ft
- Codice IATA : IOM


EGNS - Isle of Man

ULTIMO METAR :
  • 211550Z 11022KT 9999 OVC018 07/03 Q1000 NOSIG

METARs OBSOLETI :
  • 211520Z 11022KT 9999 OVC018 07/03 Q1001 NOSIG
  • 211450Z 11022KT 9999 OVC018 07/03 Q1001 NOSIG
  • 211420Z 10025KT 9999 OVC019 06/02 Q1001 NOSIG
  • 211350Z 11024KT 9999 OVC018 06/02 Q1001 NOSIG
  • 211320Z 11022KT 9999 OVC018 06/03 Q1002 NOSIG

TAF COR TAF EGNS
Valido dal 21 a 15 ore il 21 a 22 ore UTC


211400Z 2115/2122 11023KT 9999 BKN018



MetMap, La meteo Aeronautica in un colpo d'occhio ! - Copyright ORBIFLY Dicembre 2007 - Disclaimer

ORBIFLY MET'MAP TEAM :

Programmazione e sviluppo : Alexandra Zaïnal
Concezione e sviluppo : Baudouin d'Aumeries
Co-Programmazione e sviluppo : Marc-Olivier Méhu
Supporto tecnico e logistico : Manuel Goepfert
Aiuto per la traduzione : Arnaldo La Scala

Contatto : metmap@orbifly.com




FONTI E CREDITI :

   NOAA